createdAt,value
2023-01-13T00:01:43.145Z,0.80
2023-01-13T00:04:31.621Z,0.55
2023-01-13T00:07:18.686Z,0.80
2023-01-13T00:10:11.351Z,0.82
2023-01-13T00:12:58.424Z,0.68
2023-01-13T00:15:56.124Z,0.77
2023-01-13T00:18:43.829Z,0.82
2023-01-13T00:21:30.889Z,0.50
2023-01-13T00:24:17.902Z,0.68
2023-01-13T00:27:05.275Z,0.60
2023-01-13T00:29:52.757Z,0.55
2023-01-13T00:32:40.253Z,0.70
2023-01-13T00:35:27.387Z,0.50
2023-01-13T00:38:14.441Z,0.50
2023-01-13T00:41:10.525Z,0.70
2023-01-13T00:43:57.592Z,0.70
2023-01-13T00:46:44.678Z,0.75
2023-01-13T00:49:31.732Z,0.82
2023-01-13T00:52:18.861Z,0.65
2023-01-13T00:55:06.341Z,0.70
2023-01-13T00:57:53.497Z,0.60
2023-01-13T01:00:42.006Z,0.80
2023-01-13T01:03:29.367Z,0.60
2023-01-13T01:06:18.956Z,0.85
2023-01-13T01:09:06.495Z,0.80
2023-01-13T01:11:53.654Z,0.80
2023-01-13T01:14:41.257Z,0.50
2023-01-13T01:17:28.601Z,0.80
2023-01-13T01:20:15.910Z,0.55
2023-01-13T01:23:03.590Z,0.60
2023-01-13T01:25:50.788Z,0.60
2023-01-13T01:28:38.113Z,0.70
2023-01-13T01:31:27.995Z,0.40
2023-01-13T01:34:15.089Z,0.52
2023-01-13T01:37:02.229Z,0.70
2023-01-13T01:39:49.425Z,0.80
2023-01-13T01:42:55.022Z,0.70
2023-01-13T01:45:42.084Z,0.80
2023-01-13T01:48:33.392Z,0.65
2023-01-13T01:51:21.321Z,0.52
2023-01-13T01:54:11.622Z,0.70
2023-01-13T01:56:58.977Z,0.60
2023-01-13T01:59:49.439Z,0.73
2023-01-13T02:02:37.323Z,0.70
2023-01-13T02:05:24.546Z,0.40
2023-01-13T02:08:13.580Z,0.45
2023-01-13T02:11:00.640Z,0.70
2023-01-13T02:13:47.643Z,0.68
2023-01-13T02:16:37.379Z,0.80
2023-01-13T02:19:48.033Z,0.60
2023-01-13T02:22:57.171Z,0.60
2023-01-13T02:25:57.748Z,0.80
2023-01-13T02:29:29.954Z,0.60
2023-01-13T02:32:32.277Z,0.70
2023-01-13T02:35:32.952Z,0.60
2023-01-13T02:38:40.458Z,0.57
2023-01-13T02:41:53.007Z,0.40
2023-01-13T02:44:51.291Z,0.50
2023-01-13T02:47:41.359Z,0.60
2023-01-13T02:50:53.591Z,0.60
2023-01-13T02:53:50.943Z,0.45
2023-01-13T02:56:42.743Z,0.40
2023-01-13T02:59:30.928Z,0.50
2023-01-13T03:02:21.056Z,0.60
2023-01-13T03:05:12.220Z,0.60
2023-01-13T03:08:18.387Z,0.60
2023-01-13T03:11:17.264Z,0.50
2023-01-13T03:14:18.686Z,0.60
2023-01-13T03:17:22.077Z,0.40
2023-01-13T03:20:28.211Z,0.75
2023-01-13T03:23:26.145Z,0.50
2023-01-13T03:26:18.976Z,0.80
2023-01-13T03:29:14.936Z,0.60
2023-01-13T03:32:14.301Z,0.50
2023-01-13T03:35:13.544Z,0.40
2023-01-13T03:38:06.276Z,0.70
2023-01-13T03:40:59.406Z,0.60
2023-01-13T03:44:13.670Z,0.63
2023-01-13T03:47:06.642Z,0.30
2023-01-13T03:49:53.633Z,0.50
2023-01-13T03:52:46.355Z,0.45
2023-01-13T03:55:37.899Z,0.65
2023-01-13T03:58:31.133Z,0.75
2023-01-13T04:01:35.299Z,0.80
2023-01-13T04:04:29.340Z,0.80
2023-01-13T04:07:39.473Z,0.50
2023-01-13T04:10:31.625Z,0.63
2023-01-13T04:13:23.227Z,0.80
2023-01-13T04:16:11.785Z,0.70
2023-01-13T04:18:58.934Z,0.57
2023-01-13T04:21:46.119Z,0.70
2023-01-13T04:24:33.243Z,0.50
2023-01-13T04:27:20.305Z,0.70
2023-01-13T04:30:08.271Z,0.60
2023-01-13T04:32:55.406Z,0.50
2023-01-13T04:35:43.981Z,0.60
2023-01-13T04:38:31.099Z,0.90
2023-01-13T04:41:18.175Z,0.65
2023-01-13T04:44:05.526Z,0.60
2023-01-13T04:46:52.960Z,0.57
2023-01-13T04:49:40.050Z,0.70
2023-01-13T04:52:27.165Z,0.52
2023-01-13T04:55:14.735Z,0.63
2023-01-13T04:58:06.437Z,0.75
2023-01-13T05:00:53.472Z,0.90
2023-01-13T05:03:40.679Z,0.80
2023-01-13T05:06:27.800Z,0.57
2023-01-13T05:09:15.667Z,0.60
2023-01-13T05:12:21.497Z,0.60
2023-01-13T05:15:30.517Z,0.68
2023-01-13T05:18:19.131Z,0.50
2023-01-13T05:21:26.180Z,0.50
2023-01-13T05:24:31.790Z,0.65
2023-01-13T05:27:18.845Z,0.95
2023-01-13T05:30:06.525Z,0.80
2023-01-13T05:32:53.995Z,0.50
2023-01-13T05:35:42.877Z,0.60
2023-01-13T05:38:29.912Z,0.70
2023-01-13T05:41:35.319Z,0.60
2023-01-13T05:44:22.462Z,1.00
2023-01-13T05:47:10.692Z,0.52
2023-01-13T05:49:57.821Z,0.50
2023-01-13T05:52:45.010Z,0.70
2023-01-13T05:55:32.332Z,0.80
2023-01-13T05:58:21.277Z,0.70
2023-01-13T06:01:09.449Z,0.63
2023-01-13T06:03:56.512Z,0.60
2023-01-13T06:06:44.922Z,0.60
2023-01-13T06:09:32.023Z,0.57
2023-01-13T06:12:19.100Z,0.50
2023-01-13T06:15:06.850Z,0.70
2023-01-13T06:17:54.033Z,0.60
2023-01-13T06:20:41.105Z,0.45
2023-01-13T06:23:28.741Z,0.50
2023-01-13T06:26:25.200Z,0.70
2023-01-13T06:29:14.968Z,0.40
2023-01-13T06:32:11.565Z,0.50
2023-01-13T06:35:05.513Z,0.50
2023-01-13T06:37:55.726Z,0.50
2023-01-13T06:40:43.757Z,0.40
2023-01-13T06:43:30.827Z,0.73
2023-01-13T06:46:17.890Z,0.50
2023-01-13T06:49:07.001Z,0.45
2023-01-13T06:51:54.049Z,0.70
2023-01-13T06:54:41.189Z,0.60
2023-01-13T06:57:28.430Z,0.60
2023-01-13T07:00:15.988Z,0.50
2023-01-13T07:03:14.254Z,0.73
2023-01-13T07:06:02.268Z,0.60
2023-01-13T07:08:49.345Z,0.50
2023-01-13T07:11:36.387Z,0.43
2023-01-13T07:14:42.038Z,0.40
2023-01-13T07:17:29.151Z,1.20
2023-01-13T07:20:17.040Z,0.55
2023-01-13T07:23:04.176Z,0.50
2023-01-13T07:25:51.278Z,0.50
2023-01-13T07:28:39.684Z,0.50
2023-01-13T07:31:26.845Z,0.43
2023-01-13T07:34:14.007Z,0.40
2023-01-13T07:37:01.465Z,0.57
2023-01-13T07:39:50.209Z,0.43
2023-01-13T07:42:57.449Z,0.60
2023-01-13T07:45:44.604Z,0.60
2023-01-13T07:48:34.074Z,0.40
2023-01-13T07:51:21.237Z,0.30
2023-01-13T07:54:08.305Z,0.43
2023-01-13T07:56:58.499Z,0.40
2023-01-13T07:59:45.552Z,0.65
2023-01-13T08:02:32.948Z,0.50
2023-01-13T08:05:20.200Z,0.38
2023-01-13T08:08:07.348Z,0.50
2023-01-13T08:10:54.470Z,0.60
2023-01-13T08:13:41.613Z,0.50
2023-01-13T08:16:28.717Z,0.40
2023-01-13T08:19:15.861Z,0.50
2023-01-13T08:22:03.029Z,0.50
2023-01-13T08:24:50.370Z,0.60
2023-01-13T08:27:37.435Z,0.50
2023-01-13T08:30:24.551Z,0.43
2023-01-13T08:33:13.181Z,1.30
2023-01-13T08:36:07.056Z,0.80
2023-01-13T08:38:54.124Z,0.50
2023-01-13T08:41:55.174Z,0.43
2023-01-13T08:44:42.293Z,0.70
2023-01-13T08:47:29.460Z,0.93
2023-01-13T08:50:17.129Z,0.95
2023-01-13T08:53:04.327Z,0.50
2023-01-13T08:55:51.491Z,0.50
2023-01-13T08:58:39.117Z,0.70
2023-01-13T09:01:27.339Z,0.90
2023-01-13T09:04:20.645Z,0.50
2023-01-13T09:07:09.150Z,0.50
2023-01-13T09:09:57.045Z,0.60
2023-01-13T09:13:02.862Z,0.70
2023-01-13T09:15:49.978Z,0.70
2023-01-13T09:18:37.233Z,0.70
2023-01-13T09:21:24.355Z,0.80
2023-01-13T09:24:11.598Z,0.70
2023-01-13T09:26:58.792Z,0.70
2023-01-13T09:29:45.923Z,0.50
2023-01-13T09:32:33.128Z,0.70
2023-01-13T09:35:20.208Z,0.40
2023-01-13T09:38:07.592Z,0.60
2023-01-13T09:40:55.733Z,0.85
2023-01-13T09:43:54.983Z,0.47
2023-01-13T09:46:52.545Z,0.80
2023-01-13T09:49:42.187Z,0.98
2023-01-13T09:52:29.527Z,0.60
2023-01-13T09:55:22.688Z,1.13
2023-01-13T09:58:16.836Z,1.00
2023-01-13T10:01:13.193Z,0.82
2023-01-13T10:04:18.748Z,1.13
2023-01-13T10:07:13.936Z,0.98
2023-01-13T10:10:03.405Z,0.80
2023-01-13T10:13:09.505Z,1.10
2023-01-13T10:16:04.644Z,0.85
2023-01-13T10:19:29.169Z,0.90
2023-01-13T10:22:36.561Z,0.90
2023-01-13T10:25:42.105Z,0.65
2023-01-13T10:28:29.211Z,1.20
2023-01-13T10:31:17.898Z,0.77
2023-01-13T10:34:05.144Z,1.08
2023-01-13T10:37:03.154Z,1.20
2023-01-13T10:39:55.001Z,0.90
2023-01-13T10:42:42.166Z,1.13
2023-01-13T10:45:29.280Z,0.85
2023-01-13T10:48:16.551Z,0.70
2023-01-13T10:51:13.724Z,1.00
2023-01-13T10:54:02.686Z,0.70
2023-01-13T10:57:13.648Z,0.80
2023-01-13T11:00:04.635Z,1.50
2023-01-13T11:03:28.227Z,1.00
2023-01-13T11:06:22.968Z,1.38
2023-01-13T11:09:20.213Z,0.93
2023-01-13T11:12:34.881Z,0.88
2023-01-13T11:15:29.995Z,1.10
2023-01-13T11:18:40.469Z,1.35
2023-01-13T11:21:53.952Z,1.40
2023-01-13T11:24:51.244Z,1.20
2023-01-13T11:28:17.521Z,0.80
2023-01-13T11:31:04.670Z,1.42
2023-01-13T11:33:59.106Z,1.27
2023-01-13T11:36:55.234Z,1.10
2023-01-13T11:40:01.653Z,1.20
2023-01-13T11:43:07.557Z,1.00
2023-01-13T11:45:58.487Z,1.38
2023-01-13T11:48:45.628Z,0.70
2023-01-13T11:51:49.894Z,0.70
2023-01-13T11:55:15.636Z,1.10
2023-01-13T11:58:16.754Z,1.00
2023-01-13T12:01:17.601Z,0.70
2023-01-13T12:04:23.256Z,0.60
2023-01-13T12:07:23.129Z,0.68
2023-01-13T12:10:17.332Z,0.90
2023-01-13T12:13:26.541Z,1.05
2023-01-13T12:16:23.798Z,0.55
2023-01-13T12:19:20.246Z,0.60
2023-01-13T12:22:20.654Z,0.77
2023-01-13T12:25:37.178Z,0.60
2023-01-13T12:29:02.812Z,0.47
2023-01-13T12:31:51.331Z,1.00
2023-01-13T12:34:47.678Z,0.80
2023-01-13T12:37:46.131Z,1.15
2023-01-13T12:40:48.023Z,0.77
2023-01-13T12:43:55.954Z,0.80
2023-01-13T12:47:01.387Z,0.68
2023-01-13T12:49:48.549Z,0.82
2023-01-13T12:52:44.286Z,1.15
2023-01-13T12:55:33.934Z,0.70
2023-01-13T12:58:28.737Z,0.70
2023-01-13T13:01:16.105Z,0.68
2023-01-13T13:04:17.116Z,0.68
2023-01-13T13:07:10.292Z,0.57
2023-01-13T13:10:07.797Z,0.45
2023-01-13T13:13:18.331Z,0.35
2023-01-13T13:16:27.580Z,0.50
2023-01-13T13:19:17.953Z,0.50
2023-01-13T13:22:14.392Z,0.60
2023-01-13T13:25:04.584Z,0.80
2023-01-13T13:28:09.676Z,0.70
2023-01-13T13:31:25.989Z,0.57
2023-01-13T13:34:28.268Z,0.50
2023-01-13T13:37:25.347Z,0.38
2023-01-13T13:40:31.272Z,0.93
2023-01-13T13:43:38.985Z,0.85
2023-01-13T13:46:49.825Z,1.08
2023-01-13T13:49:45.215Z,0.82
2023-01-13T13:52:40.452Z,0.63
2023-01-13T13:55:29.351Z,0.90
2023-01-13T13:58:18.126Z,0.82
2023-01-13T14:01:05.616Z,0.90
2023-01-13T14:04:23.576Z,1.27
2023-01-13T14:07:21.848Z,2.95
2023-01-13T14:10:17.856Z,1.63
2023-01-13T14:13:17.891Z,2.53
2023-01-13T14:16:10.329Z,1.08
2023-01-13T14:18:57.680Z,1.20
2023-01-13T14:21:48.137Z,1.20
2023-01-13T14:24:46.527Z,1.55
2023-01-13T14:27:35.352Z,1.00
2023-01-13T14:30:24.572Z,0.88
2023-01-13T14:33:17.619Z,1.00
2023-01-13T14:36:21.170Z,0.90
2023-01-13T14:39:10.322Z,0.73
2023-01-13T14:41:57.582Z,0.90
2023-01-13T14:44:50.471Z,3.40
2023-01-13T14:47:39.547Z,1.00
2023-01-13T14:50:31.521Z,0.75
2023-01-13T14:53:36.768Z,0.93
2023-01-13T14:56:44.152Z,1.02
2023-01-13T15:00:00.642Z,0.88
2023-01-13T15:02:57.863Z,1.42
2023-01-13T15:05:52.759Z,1.70
2023-01-13T15:08:40.766Z,0.80
2023-01-13T15:11:28.927Z,0.80
2023-01-13T15:14:23.168Z,1.02
2023-01-13T15:17:16.647Z,0.80
2023-01-13T15:20:06.441Z,1.25
2023-01-13T15:22:55.650Z,1.17
2023-01-13T15:25:43.692Z,1.23
2023-01-13T15:28:32.196Z,1.25
2023-01-13T15:31:19.801Z,0.77
2023-01-13T15:34:06.903Z,0.80
2023-01-13T15:36:54.049Z,1.00
2023-01-13T15:39:41.204Z,1.40
2023-01-13T15:42:47.002Z,1.00
2023-01-13T15:45:55.255Z,1.25
2023-01-13T15:48:42.433Z,1.52
2023-01-13T15:51:29.610Z,1.60
2023-01-13T15:54:16.763Z,0.95
2023-01-13T15:57:03.895Z,1.05
2023-01-13T15:59:53.715Z,0.80
2023-01-13T16:02:40.821Z,2.20
2023-01-13T16:05:28.042Z,0.95
2023-01-13T16:08:20.654Z,1.15
2023-01-13T16:11:09.483Z,0.70
2023-01-13T16:13:56.586Z,1.25
2023-01-13T16:16:43.709Z,0.85
2023-01-13T16:19:31.466Z,0.70
2023-01-13T16:22:18.671Z,1.25
2023-01-13T16:25:06.250Z,1.67
2023-01-13T16:27:53.491Z,0.90
2023-01-13T16:30:40.591Z,1.10
2023-01-13T16:33:27.770Z,1.38
2023-01-13T16:36:16.873Z,1.60
2023-01-13T16:39:05.082Z,1.45
2023-01-13T16:41:52.309Z,2.13
2023-01-13T16:44:39.416Z,1.20
2023-01-13T16:47:26.724Z,1.35
2023-01-13T16:50:30.506Z,2.35
2023-01-13T16:53:17.653Z,2.13
2023-01-13T16:56:20.769Z,1.63
2023-01-13T16:59:16.863Z,1.50
2023-01-13T17:02:05.117Z,1.17
2023-01-13T17:04:52.333Z,1.63
2023-01-13T17:07:41.697Z,1.13
2023-01-13T17:10:28.886Z,1.52
2023-01-13T17:13:17.083Z,1.58
2023-01-13T17:16:05.840Z,1.65
2023-01-13T17:18:53.745Z,1.40
2023-01-13T17:21:40.962Z,1.42
2023-01-13T17:24:30.920Z,2.33
2023-01-13T17:27:18.606Z,0.93
2023-01-13T17:30:06.428Z,1.30
2023-01-13T17:32:54.066Z,1.60
2023-01-13T17:35:41.279Z,1.50
2023-01-13T17:38:28.440Z,1.85
2023-01-13T17:41:15.473Z,1.25
2023-01-13T17:44:02.534Z,1.80
2023-01-13T17:46:49.843Z,2.00
2023-01-13T17:49:36.942Z,1.92
2023-01-13T17:52:23.978Z,1.80
2023-01-13T17:55:11.094Z,1.80
2023-01-13T17:57:58.188Z,1.52
2023-01-13T18:00:45.334Z,1.35
2023-01-13T18:03:32.411Z,1.92
2023-01-13T18:06:22.778Z,1.33
2023-01-13T18:09:10.038Z,1.95
2023-01-13T18:11:57.152Z,1.90
2023-01-13T18:14:44.255Z,1.65
2023-01-13T18:17:31.410Z,2.90
2023-01-13T18:20:37.199Z,1.63
2023-01-13T18:23:42.666Z,1.83
2023-01-13T18:26:48.033Z,1.70
2023-01-13T18:29:35.069Z,1.63
2023-01-13T18:32:23.725Z,2.00
2023-01-13T18:35:10.889Z,2.10
2023-01-13T18:37:58.028Z,1.50
2023-01-13T18:40:45.207Z,2.97
2023-01-13T18:43:33.562Z,1.52
2023-01-13T18:46:21.253Z,1.92
2023-01-13T18:49:08.470Z,1.85
2023-01-13T18:51:55.684Z,1.63
2023-01-13T18:54:42.763Z,1.60
2023-01-13T18:57:29.807Z,1.35
2023-01-13T19:00:19.771Z,1.52
2023-01-13T19:06:04.777Z,1.65
2023-01-13T19:08:53.478Z,1.50
2023-01-13T19:11:42.241Z,1.70
2023-01-13T19:14:37.255Z,1.70
2023-01-13T19:17:26.141Z,1.13
2023-01-13T19:20:13.309Z,1.55
2023-01-13T19:23:00.382Z,1.63
2023-01-13T19:25:47.440Z,1.42
2023-01-13T19:28:35.103Z,1.60
2023-01-13T19:31:23.443Z,1.48
2023-01-13T19:34:10.666Z,1.63
2023-01-13T19:36:57.931Z,1.63
2023-01-13T19:39:45.164Z,1.35
2023-01-13T19:42:50.894Z,2.33
2023-01-13T19:45:38.013Z,1.08
2023-01-13T19:48:26.159Z,1.15
2023-01-13T19:51:14.551Z,1.13
2023-01-13T19:54:01.776Z,1.50
2023-01-13T19:56:49.040Z,1.52
2023-01-13T19:59:40.550Z,1.50
2023-01-13T20:02:28.857Z,2.08
2023-01-13T20:05:21.091Z,1.23
2023-01-13T20:08:08.753Z,2.00
2023-01-13T20:11:15.840Z,1.30
2023-01-13T20:14:03.993Z,1.27
2023-01-13T20:16:52.142Z,1.90
2023-01-13T20:19:39.216Z,1.70
2023-01-13T20:22:26.395Z,1.70
2023-01-13T20:25:16.944Z,1.88
2023-01-13T20:28:04.744Z,1.10
2023-01-13T20:30:53.319Z,1.92
2023-01-13T20:33:40.793Z,1.50
2023-01-13T20:36:31.537Z,1.45
2023-01-13T20:39:25.279Z,1.52
2023-01-13T20:42:32.119Z,1.50
2023-01-13T20:45:21.568Z,2.10
2023-01-13T20:48:08.734Z,1.55
2023-01-13T20:50:58.868Z,1.70
2023-01-13T20:53:45.962Z,1.35
2023-01-13T20:56:33.270Z,1.40
2023-01-13T20:59:20.650Z,1.63
2023-01-13T21:02:12.943Z,1.17
2023-01-13T21:05:00.046Z,1.30
2023-01-13T21:07:47.236Z,1.73
2023-01-13T21:10:34.495Z,1.30
2023-01-13T21:13:40.047Z,1.65
2023-01-13T21:16:27.227Z,1.85
2023-01-13T21:19:14.394Z,1.55
2023-01-13T21:22:03.957Z,2.13
2023-01-13T21:24:51.309Z,1.60
2023-01-13T21:27:38.937Z,1.30
2023-01-13T21:30:26.017Z,1.30
2023-01-13T21:33:14.155Z,1.88
2023-01-13T21:36:19.562Z,2.65
2023-01-13T21:39:07.004Z,1.02
2023-01-13T21:42:12.934Z,2.10
2023-01-13T21:45:18.881Z,1.50
2023-01-13T21:48:07.314Z,1.35
2023-01-13T21:50:54.685Z,0.95
2023-01-13T21:53:41.829Z,1.23
2023-01-13T21:56:28.964Z,1.17
2023-01-13T21:59:16.006Z,1.90
2023-01-13T22:02:25.202Z,1.40
2023-01-13T22:05:15.692Z,1.48
2023-01-13T22:08:03.609Z,1.77
2023-01-13T22:11:00.763Z,1.60
2023-01-13T22:14:08.825Z,2.42
2023-01-13T22:17:00.552Z,2.10
2023-01-13T22:19:49.316Z,1.60
2023-01-13T22:22:37.078Z,2.28
2023-01-13T22:25:24.303Z,1.27
2023-01-13T22:28:13.887Z,1.45
2023-01-13T22:31:01.363Z,1.67
2023-01-13T22:33:48.502Z,2.50
2023-01-13T22:36:35.634Z,1.98
2023-01-13T22:39:22.817Z,2.85
2023-01-13T22:42:10.176Z,1.95
2023-01-13T22:44:57.313Z,1.55
2023-01-13T22:47:44.380Z,1.50
2023-01-13T22:50:32.603Z,1.70
2023-01-13T22:53:20.358Z,2.47
2023-01-13T22:56:08.283Z,1.67
2023-01-13T22:58:57.521Z,1.35
2023-01-13T23:01:44.698Z,2.20
2023-01-13T23:04:31.948Z,1.90
2023-01-13T23:07:19.040Z,1.95
2023-01-13T23:10:06.443Z,2.40
2023-01-13T23:12:53.751Z,2.35
2023-01-13T23:15:40.818Z,2.05
2023-01-13T23:18:27.970Z,2.05
2023-01-13T23:21:18.182Z,1.65
2023-01-13T23:24:06.314Z,1.70
2023-01-13T23:26:53.413Z,2.17
2023-01-13T23:29:40.530Z,1.92
2023-01-13T23:32:27.879Z,2.25
2023-01-13T23:35:15.267Z,1.83
2023-01-13T23:38:02.644Z,1.98
2023-01-13T23:40:49.898Z,1.60
2023-01-13T23:43:37.311Z,1.92
2023-01-13T23:46:25.697Z,1.67
2023-01-13T23:49:12.853Z,2.03
2023-01-13T23:52:00.130Z,1.73
2023-01-13T23:54:47.192Z,1.60
2023-01-13T23:57:34.305Z,1.77
